sensor_id;sensor_type;location;lat;lon;timestamp;P1;durP1;ratioP1;P2;durP2;ratioP2
27543;SDS011;17996;51.056;3.656;2023-07-31T00:00:28;28.33;;;9.98;;
27543;SDS011;17996;51.056;3.656;2023-07-31T00:02:54;23.40;;;10.23;;
27543;SDS011;17996;51.056;3.656;2023-07-31T00:05:20;33.38;;;9.85;;
27543;SDS011;17996;51.056;3.656;2023-07-31T00:07:46;38.72;;;10.70;;
27543;SDS011;17996;51.056;3.656;2023-07-31T00:10:12;25.23;;;9.52;;
27543;SDS011;17996;51.056;3.656;2023-07-31T00:12:38;30.02;;;10.73;;
27543;SDS011;17996;51.056;3.656;2023-07-31T00:15:05;28.50;;;10.07;;
27543;SDS011;17996;51.056;3.656;2023-07-31T00:17:32;30.38;;;10.65;;
27543;SDS011;17996;51.056;3.656;2023-07-31T00:19:57;32.38;;;10.00;;
27543;SDS011;17996;51.056;3.656;2023-07-31T00:22:23;31.80;;;10.30;;
27543;SDS011;17996;51.056;3.656;2023-07-31T00:24:49;29.38;;;10.10;;
27543;SDS011;17996;51.056;3.656;2023-07-31T00:27:14;33.45;;;10.57;;
27543;SDS011;17996;51.056;3.656;2023-07-31T00:29:40;22.90;;;9.48;;
27543;SDS011;17996;51.056;3.656;2023-07-31T00:32:06;26.52;;;9.68;;
27543;SDS011;17996;51.056;3.656;2023-07-31T00:34:32;29.27;;;10.35;;
27543;SDS011;17996;51.056;3.656;2023-07-31T00:36:57;34.55;;;9.20;;
27543;SDS011;17996;51.056;3.656;2023-07-31T00:39:23;32.80;;;10.82;;
27543;SDS011;17996;51.056;3.656;2023-07-31T00:41:49;34.15;;;9.57;;
27543;SDS011;17996;51.056;3.656;2023-07-31T00:44:14;31.50;;;9.80;;
27543;SDS011;17996;51.056;3.656;2023-07-31T00:46:40;27.10;;;9.13;;
27543;SDS011;17996;51.056;3.656;2023-07-31T00:49:06;27.83;;;9.38;;
27543;SDS011;17996;51.056;3.656;2023-07-31T00:51:32;27.88;;;9.50;;
27543;SDS011;17996;51.056;3.656;2023-07-31T00:53:58;26.70;;;9.00;;
27543;SDS011;17996;51.056;3.656;2023-07-31T00:56:24;35.72;;;10.70;;
27543;SDS011;17996;51.056;3.656;2023-07-31T00:58:51;26.40;;;9.23;;
27543;SDS011;17996;51.056;3.656;2023-07-31T01:01:16;27.02;;;9.88;;
27543;SDS011;17996;51.056;3.656;2023-07-31T01:03:42;25.75;;;9.73;;
27543;SDS011;17996;51.056;3.656;2023-07-31T01:08:46;29.02;;;9.10;;
27543;SDS011;17996;51.056;3.656;2023-07-31T01:13:52;33.17;;;9.48;;
27543;SDS011;17996;51.056;3.656;2023-07-31T01:16:19;30.35;;;8.32;;
27543;SDS011;17996;51.056;3.656;2023-07-31T01:18:44;33.38;;;9.25;;
27543;SDS011;17996;51.056;3.656;2023-07-31T01:26:55;28.05;;;9.30;;
27543;SDS011;17996;51.056;3.656;2023-07-31T01:29:26;25.70;;;9.05;;
27543;SDS011;17996;51.056;3.656;2023-07-31T01:31:55;29.00;;;9.23;;
27543;SDS011;17996;51.056;3.656;2023-07-31T01:34:26;26.13;;;9.00;;
27543;SDS011;17996;51.056;3.656;2023-07-31T01:36:52;26.38;;;8.48;;
27543;SDS011;17996;51.056;3.656;2023-07-31T01:39:19;32.72;;;10.45;;
27543;SDS011;17996;51.056;3.656;2023-07-31T01:41:45;30.20;;;8.57;;
27543;SDS011;17996;51.056;3.656;2023-07-31T01:44:11;36.28;;;9.57;;
27543;SDS011;17996;51.056;3.656;2023-07-31T01:46:37;22.60;;;8.45;;
27543;SDS011;17996;51.056;3.656;2023-07-31T01:49:02;25.80;;;8.60;;
27543;SDS011;17996;51.056;3.656;2023-07-31T01:51:30;27.17;;;7.85;;
27543;SDS011;17996;51.056;3.656;2023-07-31T01:53:59;27.98;;;8.65;;
27543;SDS011;17996;51.056;3.656;2023-07-31T01:56:25;31.20;;;8.85;;
27543;SDS011;17996;51.056;3.656;2023-07-31T01:58:51;25.13;;;8.05;;
27543;SDS011;17996;51.056;3.656;2023-07-31T02:01:16;27.27;;;8.15;;
27543;SDS011;17996;51.056;3.656;2023-07-31T02:03:42;24.95;;;8.43;;
27543;SDS011;17996;51.056;3.656;2023-07-31T02:06:08;23.13;;;8.88;;
27543;SDS011;17996;51.056;3.656;2023-07-31T02:08:33;24.23;;;8.10;;
27543;SDS011;17996;51.056;3.656;2023-07-31T02:10:59;23.60;;;7.75;;
27543;SDS011;17996;51.056;3.656;2023-07-31T02:13:24;30.60;;;8.15;;
27543;SDS011;17996;51.056;3.656;2023-07-31T02:15:50;29.08;;;7.93;;
27543;SDS011;17996;51.056;3.656;2023-07-31T02:18:16;30.50;;;8.65;;
27543;SDS011;17996;51.056;3.656;2023-07-31T02:20:42;27.45;;;7.35;;
27543;SDS011;17996;51.056;3.656;2023-07-31T02:23:09;24.10;;;7.53;;
27543;SDS011;17996;51.056;3.656;2023-07-31T02:25:34;26.08;;;8.02;;
27543;SDS011;17996;51.056;3.656;2023-07-31T02:28:00;19.55;;;7.60;;
27543;SDS011;17996;51.056;3.656;2023-07-31T02:30:26;26.77;;;7.43;;
27543;SDS011;17996;51.056;3.656;2023-07-31T02:32:51;29.63;;;7.93;;
27543;SDS011;17996;51.056;3.656;2023-07-31T02:35:17;25.55;;;8.05;;
27543;SDS011;17996;51.056;3.656;2023-07-31T02:37:43;26.75;;;8.25;;
27543;SDS011;17996;51.056;3.656;2023-07-31T02:40:09;22.77;;;7.70;;
27543;SDS011;17996;51.056;3.656;2023-07-31T02:42:35;23.98;;;7.45;;
27543;SDS011;17996;51.056;3.656;2023-07-31T02:45:01;21.40;;;7.82;;
27543;SDS011;17996;51.056;3.656;2023-07-31T02:47:26;24.30;;;7.95;;
27543;SDS011;17996;51.056;3.656;2023-07-31T02:49:52;25.70;;;7.80;;
27543;SDS011;17996;51.056;3.656;2023-07-31T02:52:17;22.73;;;8.13;;
27543;SDS011;17996;51.056;3.656;2023-07-31T02:54:43;29.33;;;7.93;;
27543;SDS011;17996;51.056;3.656;2023-07-31T02:57:09;24.15;;;8.15;;
27543;SDS011;17996;51.056;3.656;2023-07-31T02:59:35;22.30;;;7.95;;
27543;SDS011;17996;51.056;3.656;2023-07-31T03:02:00;29.20;;;7.82;;
27543;SDS011;17996;51.056;3.656;2023-07-31T03:04:26;24.50;;;6.65;;
27543;SDS011;17996;51.056;3.656;2023-07-31T03:06:52;29.48;;;8.80;;
27543;SDS011;17996;51.056;3.656;2023-07-31T03:09:17;26.98;;;7.13;;
27543;SDS011;17996;51.056;3.656;2023-07-31T03:11:43;37.00;;;8.50;;
27543;SDS011;17996;51.056;3.656;2023-07-31T03:14:09;26.40;;;7.28;;
27543;SDS011;17996;51.056;3.656;2023-07-31T03:16:34;30.52;;;8.63;;
27543;SDS011;17996;51.056;3.656;2023-07-31T03:19:00;26.90;;;8.55;;
27543;SDS011;17996;51.056;3.656;2023-07-31T03:21:25;29.75;;;8.80;;
27543;SDS011;17996;51.056;3.656;2023-07-31T03:23:51;27.23;;;8.80;;
27543;SDS011;17996;51.056;3.656;2023-07-31T03:26:17;23.95;;;8.60;;
27543;SDS011;17996;51.056;3.656;2023-07-31T03:28:42;30.33;;;8.93;;
27543;SDS011;17996;51.056;3.656;2023-07-31T03:31:08;35.10;;;9.25;;
27543;SDS011;17996;51.056;3.656;2023-07-31T03:33:34;35.20;;;9.85;;
27543;SDS011;17996;51.056;3.656;2023-07-31T03:35:59;23.73;;;8.93;;
27543;SDS011;17996;51.056;3.656;2023-07-31T03:38:25;28.90;;;9.13;;
27543;SDS011;17996;51.056;3.656;2023-07-31T03:40:51;25.90;;;8.60;;
27543;SDS011;17996;51.056;3.656;2023-07-31T03:43:17;27.77;;;8.95;;
27543;SDS011;17996;51.056;3.656;2023-07-31T03:45:42;30.50;;;9.13;;
27543;SDS011;17996;51.056;3.656;2023-07-31T03:48:08;19.52;;;7.57;;
27543;SDS011;17996;51.056;3.656;2023-07-31T03:50:34;26.55;;;8.82;;
27543;SDS011;17996;51.056;3.656;2023-07-31T03:53:00;28.95;;;8.65;;
27543;SDS011;17996;51.056;3.656;2023-07-31T03:55:25;27.45;;;8.80;;
27543;SDS011;17996;51.056;3.656;2023-07-31T03:57:51;26.98;;;8.80;;
27543;SDS011;17996;51.056;3.656;2023-07-31T04:00:17;31.15;;;10.32;;
27543;SDS011;17996;51.056;3.656;2023-07-31T04:02:42;29.70;;;10.32;;
27543;SDS011;17996;51.056;3.656;2023-07-31T04:05:08;21.30;;;8.48;;
27543;SDS011;17996;51.056;3.656;2023-07-31T04:07:34;28.17;;;9.40;;
27543;SDS011;17996;51.056;3.656;2023-07-31T04:10:00;33.63;;;9.95;;
27543;SDS011;17996;51.056;3.656;2023-07-31T04:12:26;31.85;;;9.60;;
27543;SDS011;17996;51.056;3.656;2023-07-31T04:14:51;27.92;;;9.73;;
27543;SDS011;17996;51.056;3.656;2023-07-31T04:17:17;27.88;;;9.65;;
27543;SDS011;17996;51.056;3.656;2023-07-31T04:19:43;29.60;;;9.23;;
27543;SDS011;17996;51.056;3.656;2023-07-31T04:22:09;33.55;;;9.30;;
27543;SDS011;17996;51.056;3.656;2023-07-31T04:24:35;23.55;;;8.90;;
27543;SDS011;17996;51.056;3.656;2023-07-31T04:27:00;21.92;;;8.65;;
27543;SDS011;17996;51.056;3.656;2023-07-31T04:29:26;22.70;;;8.10;;
27543;SDS011;17996;51.056;3.656;2023-07-31T04:31:52;24.17;;;7.72;;
27543;SDS011;17996;51.056;3.656;2023-07-31T04:34:17;20.38;;;7.63;;
27543;SDS011;17996;51.056;3.656;2023-07-31T04:36:43;25.90;;;8.95;;
27543;SDS011;17996;51.056;3.656;2023-07-31T04:39:09;22.52;;;7.90;;
27543;SDS011;17996;51.056;3.656;2023-07-31T04:41:34;23.95;;;7.95;;
27543;SDS011;17996;51.056;3.656;2023-07-31T04:44:00;17.15;;;7.10;;
27543;SDS011;17996;51.056;3.656;2023-07-31T04:46:26;14.55;;;6.43;;
27543;SDS011;17996;51.056;3.656;2023-07-31T04:48:52;13.55;;;6.70;;
27543;SDS011;17996;51.056;3.656;2023-07-31T04:51:17;19.13;;;6.40;;
27543;SDS011;17996;51.056;3.656;2023-07-31T04:53:43;16.00;;;6.80;;
27543;SDS011;17996;51.056;3.656;2023-07-31T04:56:09;17.05;;;6.93;;
27543;SDS011;17996;51.056;3.656;2023-07-31T04:58:34;13.80;;;6.25;;
27543;SDS011;17996;51.056;3.656;2023-07-31T05:01:00;14.50;;;7.00;;
27543;SDS011;17996;51.056;3.656;2023-07-31T05:03:25;14.00;;;6.13;;
27543;SDS011;17996;51.056;3.656;2023-07-31T05:05:51;14.48;;;7.05;;
27543;SDS011;17996;51.056;3.656;2023-07-31T05:08:17;13.40;;;6.63;;
27543;SDS011;17996;51.056;3.656;2023-07-31T05:10:42;12.68;;;6.00;;
27543;SDS011;17996;51.056;3.656;2023-07-31T05:13:08;16.75;;;6.25;;
27543;SDS011;17996;51.056;3.656;2023-07-31T05:15:34;12.65;;;6.30;;
27543;SDS011;17996;51.056;3.656;2023-07-31T05:18:00;15.05;;;6.30;;
27543;SDS011;17996;51.056;3.656;2023-07-31T05:20:25;16.80;;;6.75;;
27543;SDS011;17996;51.056;3.656;2023-07-31T05:22:52;13.30;;;6.35;;
27543;SDS011;17996;51.056;3.656;2023-07-31T05:25:18;13.63;;;5.88;;
27543;SDS011;17996;51.056;3.656;2023-07-31T05:27:44;13.65;;;6.50;;
27543;SDS011;17996;51.056;3.656;2023-07-31T05:30:09;13.55;;;6.55;;
27543;SDS011;17996;51.056;3.656;2023-07-31T05:32:35;14.35;;;6.13;;
27543;SDS011;17996;51.056;3.656;2023-07-31T05:35:01;16.08;;;6.65;;
27543;SDS011;17996;51.056;3.656;2023-07-31T05:37:26;18.40;;;6.80;;
27543;SDS011;17996;51.056;3.656;2023-07-31T05:39:52;16.98;;;6.70;;
27543;SDS011;17996;51.056;3.656;2023-07-31T05:42:18;17.63;;;6.07;;
27543;SDS011;17996;51.056;3.656;2023-07-31T05:44:44;14.73;;;6.10;;
27543;SDS011;17996;51.056;3.656;2023-07-31T05:47:09;16.15;;;6.07;;
27543;SDS011;17996;51.056;3.656;2023-07-31T05:49:35;14.57;;;6.32;;
27543;SDS011;17996;51.056;3.656;2023-07-31T05:52:01;16.50;;;6.97;;
27543;SDS011;17996;51.056;3.656;2023-07-31T05:54:27;16.63;;;6.38;;
27543;SDS011;17996;51.056;3.656;2023-07-31T05:56:52;19.00;;;6.57;;
27543;SDS011;17996;51.056;3.656;2023-07-31T05:59:18;15.60;;;6.53;;
27543;SDS011;17996;51.056;3.656;2023-07-31T06:01:44;13.93;;;6.78;;
27543;SDS011;17996;51.056;3.656;2023-07-31T06:04:09;17.58;;;7.25;;
27543;SDS011;17996;51.056;3.656;2023-07-31T06:06:35;18.00;;;6.40;;
27543;SDS011;17996;51.056;3.656;2023-07-31T06:09:01;19.52;;;6.00;;
27543;SDS011;17996;51.056;3.656;2023-07-31T06:11:28;15.25;;;5.85;;
27543;SDS011;17996;51.056;3.656;2023-07-31T06:13:54;14.95;;;7.40;;
27543;SDS011;17996;51.056;3.656;2023-07-31T06:16:20;20.45;;;6.90;;
27543;SDS011;17996;51.056;3.656;2023-07-31T06:18:46;14.85;;;6.45;;
27543;SDS011;17996;51.056;3.656;2023-07-31T06:21:12;17.05;;;4.95;;
27543;SDS011;17996;51.056;3.656;2023-07-31T06:23:38;19.17;;;6.93;;
27543;SDS011;17996;51.056;3.656;2023-07-31T06:26:04;24.42;;;6.88;;
27543;SDS011;17996;51.056;3.656;2023-07-31T06:28:30;20.55;;;6.70;;
27543;SDS011;17996;51.056;3.656;2023-07-31T06:30:56;16.33;;;6.70;;
27543;SDS011;17996;51.056;3.656;2023-07-31T06:33:23;22.05;;;7.70;;
27543;SDS011;17996;51.056;3.656;2023-07-31T06:35:49;15.95;;;6.45;;
27543;SDS011;17996;51.056;3.656;2023-07-31T06:38:14;17.08;;;5.47;;
27543;SDS011;17996;51.056;3.656;2023-07-31T06:40:40;17.83;;;5.97;;
27543;SDS011;17996;51.056;3.656;2023-07-31T06:43:06;13.90;;;5.85;;
27543;SDS011;17996;51.056;3.656;2023-07-31T06:45:33;20.58;;;6.03;;
27543;SDS011;17996;51.056;3.656;2023-07-31T06:48:01;18.33;;;6.47;;
27543;SDS011;17996;51.056;3.656;2023-07-31T06:50:30;12.73;;;6.13;;
27543;SDS011;17996;51.056;3.656;2023-07-31T06:52:56;10.25;;;5.40;;
27543;SDS011;17996;51.056;3.656;2023-07-31T06:55:22;15.10;;;5.90;;
27543;SDS011;17996;51.056;3.656;2023-07-31T06:57:49;13.40;;;5.50;;
27543;SDS011;17996;51.056;3.656;2023-07-31T07:00:16;21.40;;;6.47;;
27543;SDS011;17996;51.056;3.656;2023-07-31T07:02:43;11.13;;;5.18;;
27543;SDS011;17996;51.056;3.656;2023-07-31T07:05:08;15.57;;;5.25;;
27543;SDS011;17996;51.056;3.656;2023-07-31T07:07:35;16.00;;;5.80;;
27543;SDS011;17996;51.056;3.656;2023-07-31T07:10:01;14.10;;;5.10;;
27543;SDS011;17996;51.056;3.656;2023-07-31T07:12:29;14.32;;;5.75;;
27543;SDS011;17996;51.056;3.656;2023-07-31T07:14:56;11.40;;;5.55;;
27543;SDS011;17996;51.056;3.656;2023-07-31T07:17:25;10.88;;;4.80;;
27543;SDS011;17996;51.056;3.656;2023-07-31T07:19:53;10.68;;;5.32;;
27543;SDS011;17996;51.056;3.656;2023-07-31T07:22:20;13.98;;;4.80;;
27543;SDS011;17996;51.056;3.656;2023-07-31T07:24:45;10.13;;;4.75;;
27543;SDS011;17996;51.056;3.656;2023-07-31T07:27:11;8.82;;;4.30;;
27543;SDS011;17996;51.056;3.656;2023-07-31T07:29:37;14.88;;;4.70;;
27543;SDS011;17996;51.056;3.656;2023-07-31T07:32:03;9.88;;;4.47;;
27543;SDS011;17996;51.056;3.656;2023-07-31T07:34:30;10.25;;;4.40;;
27543;SDS011;17996;51.056;3.656;2023-07-31T07:36:55;12.18;;;4.55;;
27543;SDS011;17996;51.056;3.656;2023-07-31T07:39:21;10.93;;;4.18;;
27543;SDS011;17996;51.056;3.656;2023-07-31T07:41:47;9.00;;;4.28;;
27543;SDS011;17996;51.056;3.656;2023-07-31T07:44:13;8.93;;;4.40;;
27543;SDS011;17996;51.056;3.656;2023-07-31T07:46:39;9.15;;;3.90;;
27543;SDS011;17996;51.056;3.656;2023-07-31T07:49:05;7.65;;;3.72;;
27543;SDS011;17996;51.056;3.656;2023-07-31T07:51:31;9.25;;;3.97;;
27543;SDS011;17996;51.056;3.656;2023-07-31T07:53:59;9.88;;;3.67;;
27543;SDS011;17996;51.056;3.656;2023-07-31T07:56:26;11.80;;;3.58;;
27543;SDS011;17996;51.056;3.656;2023-07-31T07:58:52;10.32;;;4.05;;
27543;SDS011;17996;51.056;3.656;2023-07-31T08:01:19;9.82;;;3.80;;
27543;SDS011;17996;51.056;3.656;2023-07-31T08:03:45;5.43;;;3.40;;
27543;SDS011;17996;51.056;3.656;2023-07-31T08:06:11;10.32;;;3.92;;
27543;SDS011;17996;51.056;3.656;2023-07-31T08:08:38;7.63;;;3.33;;
27543;SDS011;17996;51.056;3.656;2023-07-31T08:11:04;6.35;;;2.97;;
27543;SDS011;17996;51.056;3.656;2023-07-31T08:13:29;6.97;;;3.20;;
27543;SDS011;17996;51.056;3.656;2023-07-31T08:15:55;9.02;;;3.17;;
27543;SDS011;17996;51.056;3.656;2023-07-31T08:18:21;5.18;;;2.90;;
27543;SDS011;17996;51.056;3.656;2023-07-31T08:20:47;5.30;;;3.05;;
27543;SDS011;17996;51.056;3.656;2023-07-31T08:23:12;4.78;;;3.00;;
27543;SDS011;17996;51.056;3.656;2023-07-31T08:25:38;10.25;;;3.13;;
27543;SDS011;17996;51.056;3.656;2023-07-31T08:28:05;12.13;;;3.53;;
27543;SDS011;17996;51.056;3.656;2023-07-31T08:30:31;5.00;;;2.85;;
27543;SDS011;17996;51.056;3.656;2023-07-31T08:32:58;5.20;;;3.10;;
27543;SDS011;17996;51.056;3.656;2023-07-31T08:35:25;8.82;;;3.00;;
27543;SDS011;17996;51.056;3.656;2023-07-31T08:37:53;4.93;;;2.65;;
27543;SDS011;17996;51.056;3.656;2023-07-31T08:40:18;5.68;;;2.70;;
27543;SDS011;17996;51.056;3.656;2023-07-31T08:42:45;5.25;;;3.00;;
27543;SDS011;17996;51.056;3.656;2023-07-31T08:45:16;5.57;;;3.35;;
27543;SDS011;17996;51.056;3.656;2023-07-31T08:47:50;6.82;;;2.75;;
27543;SDS011;17996;51.056;3.656;2023-07-31T08:50:17;4.25;;;2.65;;
27543;SDS011;17996;51.056;3.656;2023-07-31T08:52:45;9.60;;;3.25;;
27543;SDS011;17996;51.056;3.656;2023-07-31T08:55:12;5.93;;;2.83;;
27543;SDS011;17996;51.056;3.656;2023-07-31T08:57:38;10.63;;;3.03;;
27543;SDS011;17996;51.056;3.656;2023-07-31T09:00:05;7.43;;;3.40;;
27543;SDS011;17996;51.056;3.656;2023-07-31T09:05:11;8.13;;;3.58;;
27543;SDS011;17996;51.056;3.656;2023-07-31T09:07:37;5.15;;;2.92;;
27543;SDS011;17996;51.056;3.656;2023-07-31T09:10:04;6.82;;;3.42;;
27543;SDS011;17996;51.056;3.656;2023-07-31T09:12:30;5.65;;;3.13;;
27543;SDS011;17996;51.056;3.656;2023-07-31T09:14:57;6.18;;;3.25;;
27543;SDS011;17996;51.056;3.656;2023-07-31T09:17:30;5.80;;;3.15;;
27543;SDS011;17996;51.056;3.656;2023-07-31T09:19:57;7.47;;;3.50;;
27543;SDS011;17996;51.056;3.656;2023-07-31T09:22:33;5.07;;;3.10;;
27543;SDS011;17996;51.056;3.656;2023-07-31T09:25:19;10.18;;;4.43;;
27543;SDS011;17996;51.056;3.656;2023-07-31T09:30:21;7.85;;;3.50;;
27543;SDS011;17996;51.056;3.656;2023-07-31T09:32:47;5.40;;;3.70;;
27543;SDS011;17996;51.056;3.656;2023-07-31T09:35:21;9.85;;;4.18;;
27543;SDS011;17996;51.056;3.656;2023-07-31T09:37:55;9.90;;;4.22;;
27543;SDS011;17996;51.056;3.656;2023-07-31T09:40:34;6.45;;;3.65;;
27543;SDS011;17996;51.056;3.656;2023-07-31T09:43:05;8.55;;;4.07;;
27543;SDS011;17996;51.056;3.656;2023-07-31T09:45:34;9.00;;;4.28;;
27543;SDS011;17996;51.056;3.656;2023-07-31T09:48:03;11.55;;;5.07;;
27543;SDS011;17996;51.056;3.656;2023-07-31T09:50:34;10.82;;;4.50;;
27543;SDS011;17996;51.056;3.656;2023-07-31T09:53:02;8.60;;;4.40;;
27543;SDS011;17996;51.056;3.656;2023-07-31T09:55:28;9.45;;;4.38;;
27543;SDS011;17996;51.056;3.656;2023-07-31T09:57:56;13.98;;;4.72;;
27543;SDS011;17996;51.056;3.656;2023-07-31T10:00:22;10.23;;;4.50;;
27543;SDS011;17996;51.056;3.656;2023-07-31T10:02:50;10.25;;;4.65;;
27543;SDS011;17996;51.056;3.656;2023-07-31T10:05:16;7.35;;;4.57;;
27543;SDS011;17996;51.056;3.656;2023-07-31T10:07:43;11.73;;;4.95;;
27543;SDS011;17996;51.056;3.656;2023-07-31T10:10:16;8.32;;;4.45;;
27543;SDS011;17996;51.056;3.656;2023-07-31T10:12:44;8.75;;;4.05;;
27543;SDS011;17996;51.056;3.656;2023-07-31T10:15:11;7.50;;;3.90;;
27543;SDS011;17996;51.056;3.656;2023-07-31T10:17:37;8.27;;;3.75;;
27543;SDS011;17996;51.056;3.656;2023-07-31T10:20:03;11.15;;;4.00;;
27543;SDS011;17996;51.056;3.656;2023-07-31T10:22:31;7.85;;;3.80;;
27543;SDS011;17996;51.056;3.656;2023-07-31T10:24:58;10.60;;;4.05;;
27543;SDS011;17996;51.056;3.656;2023-07-31T10:27:24;10.90;;;5.25;;
27543;SDS011;17996;51.056;3.656;2023-07-31T10:29:50;8.10;;;4.70;;
27543;SDS011;17996;51.056;3.656;2023-07-31T10:32:19;10.38;;;4.68;;
27543;SDS011;17996;51.056;3.656;2023-07-31T10:34:45;7.22;;;4.80;;
27543;SDS011;17996;51.056;3.656;2023-07-31T10:37:28;10.63;;;5.15;;
27543;SDS011;17996;51.056;3.656;2023-07-31T10:45:14;10.40;;;5.07;;
27543;SDS011;17996;51.056;3.656;2023-07-31T10:47:51;10.38;;;4.95;;
27543;SDS011;17996;51.056;3.656;2023-07-31T10:50:25;9.80;;;5.57;;
27543;SDS011;17996;51.056;3.656;2023-07-31T10:52:54;11.23;;;5.20;;
27543;SDS011;17996;51.056;3.656;2023-07-31T10:55:40;11.15;;;5.25;;
27543;SDS011;17996;51.056;3.656;2023-07-31T10:58:11;11.10;;;5.93;;
27543;SDS011;17996;51.056;3.656;2023-07-31T11:00:38;9.18;;;5.50;;
27543;SDS011;17996;51.056;3.656;2023-07-31T11:03:12;11.50;;;5.75;;
27543;SDS011;17996;51.056;3.656;2023-07-31T11:08:14;14.18;;;5.63;;
27543;SDS011;17996;51.056;3.656;2023-07-31T11:11:04;7.93;;;4.97;;
27543;SDS011;17996;51.056;3.656;2023-07-31T11:13:33;6.68;;;4.57;;
27543;SDS011;17996;51.056;3.656;2023-07-31T11:16:04;12.55;;;4.75;;
27543;SDS011;17996;51.056;3.656;2023-07-31T11:18:30;8.60;;;3.95;;
27543;SDS011;17996;51.056;3.656;2023-07-31T11:20:56;8.15;;;4.13;;
27543;SDS011;17996;51.056;3.656;2023-07-31T11:23:22;8.07;;;4.35;;
27543;SDS011;17996;51.056;3.656;2023-07-31T11:25:48;6.72;;;3.65;;
27543;SDS011;17996;51.056;3.656;2023-07-31T11:28:15;8.10;;;3.95;;
27543;SDS011;17996;51.056;3.656;2023-07-31T11:30:42;12.90;;;4.40;;
27543;SDS011;17996;51.056;3.656;2023-07-31T11:33:09;8.60;;;4.95;;
27543;SDS011;17996;51.056;3.656;2023-07-31T11:35:41;10.48;;;4.57;;
27543;SDS011;17996;51.056;3.656;2023-07-31T11:40:50;11.65;;;4.35;;
27543;SDS011;17996;51.056;3.656;2023-07-31T11:43:17;9.32;;;3.95;;
27543;SDS011;17996;51.056;3.656;2023-07-31T11:45:50;9.02;;;4.07;;
27543;SDS011;17996;51.056;3.656;2023-07-31T11:48:33;6.60;;;4.05;;
27543;SDS011;17996;51.056;3.656;2023-07-31T11:51:02;8.45;;;4.47;;
27543;SDS011;17996;51.056;3.656;2023-07-31T11:56:18;10.80;;;4.68;;
27543;SDS011;17996;51.056;3.656;2023-07-31T11:58:55;7.20;;;4.47;;
27543;SDS011;17996;51.056;3.656;2023-07-31T12:01:23;9.13;;;5.03;;
27543;SDS011;17996;51.056;3.656;2023-07-31T12:03:51;10.23;;;5.20;;
27543;SDS011;17996;51.056;3.656;2023-07-31T12:06:17;13.73;;;5.97;;
27543;SDS011;17996;51.056;3.656;2023-07-31T12:08:43;9.40;;;5.00;;
27543;SDS011;17996;51.056;3.656;2023-07-31T12:11:09;13.95;;;5.55;;
27543;SDS011;17996;51.056;3.656;2023-07-31T12:13:35;8.10;;;4.75;;
27543;SDS011;17996;51.056;3.656;2023-07-31T12:16:01;8.48;;;5.65;;
27543;SDS011;17996;51.056;3.656;2023-07-31T12:18:30;11.43;;;5.13;;
27543;SDS011;17996;51.056;3.656;2023-07-31T12:21:01;19.25;;;6.00;;
27543;SDS011;17996;51.056;3.656;2023-07-31T12:26:09;11.10;;;5.88;;
27543;SDS011;17996;51.056;3.656;2023-07-31T12:28:36;14.20;;;6.10;;
27543;SDS011;17996;51.056;3.656;2023-07-31T12:31:06;13.93;;;6.22;;
27543;SDS011;17996;51.056;3.656;2023-07-31T12:33:35;12.20;;;5.97;;
27543;SDS011;17996;51.056;3.656;2023-07-31T12:36:09;11.68;;;6.40;;
27543;SDS011;17996;51.056;3.656;2023-07-31T12:38:36;15.18;;;6.32;;
27543;SDS011;17996;51.056;3.656;2023-07-31T12:41:03;12.10;;;6.78;;
27543;SDS011;17996;51.056;3.656;2023-07-31T12:43:29;14.15;;;7.18;;
27543;SDS011;17996;51.056;3.656;2023-07-31T12:45:55;10.70;;;6.93;;
27543;SDS011;17996;51.056;3.656;2023-07-31T12:50:49;9.82;;;5.97;;
27543;SDS011;17996;51.056;3.656;2023-07-31T12:53:15;14.02;;;6.50;;
27543;SDS011;17996;51.056;3.656;2023-07-31T12:55:42;12.05;;;4.63;;
27543;SDS011;17996;51.056;3.656;2023-07-31T12:58:07;8.43;;;4.82;;
27543;SDS011;17996;51.056;3.656;2023-07-31T13:00:33;13.98;;;5.15;;
27543;SDS011;17996;51.056;3.656;2023-07-31T13:02:59;10.88;;;5.88;;
27543;SDS011;17996;51.056;3.656;2023-07-31T13:05:26;11.48;;;5.22;;
27543;SDS011;17996;51.056;3.656;2023-07-31T13:07:52;11.80;;;5.40;;
27543;SDS011;17996;51.056;3.656;2023-07-31T13:10:18;7.93;;;5.10;;
27543;SDS011;17996;51.056;3.656;2023-07-31T13:12:44;9.38;;;5.38;;
27543;SDS011;17996;51.056;3.656;2023-07-31T13:15:09;8.88;;;4.93;;
27543;SDS011;17996;51.056;3.656;2023-07-31T13:17:35;12.13;;;5.30;;
27543;SDS011;17996;51.056;3.656;2023-07-31T13:20:01;7.47;;;5.07;;
27543;SDS011;17996;51.056;3.656;2023-07-31T13:22:28;6.13;;;3.95;;
27543;SDS011;17996;51.056;3.656;2023-07-31T13:24:54;7.15;;;3.08;;
27543;SDS011;17996;51.056;3.656;2023-07-31T13:27:20;7.03;;;3.15;;
27543;SDS011;17996;51.056;3.656;2023-07-31T13:29:50;4.75;;;3.03;;
27543;SDS011;17996;51.056;3.656;2023-07-31T13:32:19;6.95;;;3.72;;
27543;SDS011;17996;51.056;3.656;2023-07-31T13:34:45;6.30;;;3.80;;
27543;SDS011;17996;51.056;3.656;2023-07-31T13:37:11;7.22;;;3.28;;
27543;SDS011;17996;51.056;3.656;2023-07-31T13:39:38;7.63;;;3.33;;
27543;SDS011;17996;51.056;3.656;2023-07-31T13:42:04;3.60;;;2.53;;
27543;SDS011;17996;51.056;3.656;2023-07-31T13:44:34;4.45;;;2.83;;
27543;SDS011;17996;51.056;3.656;2023-07-31T13:47:00;5.32;;;2.95;;
27543;SDS011;17996;51.056;3.656;2023-07-31T13:49:26;6.25;;;3.08;;
27543;SDS011;17996;51.056;3.656;2023-07-31T13:51:52;3.92;;;2.70;;
27543;SDS011;17996;51.056;3.656;2023-07-31T13:54:18;8.05;;;3.75;;
27543;SDS011;17996;51.056;3.656;2023-07-31T13:56:44;6.05;;;3.83;;
27543;SDS011;17996;51.056;3.656;2023-07-31T13:59:10;8.38;;;3.90;;
27543;SDS011;17996;51.056;3.656;2023-07-31T14:01:35;5.45;;;3.50;;
27543;SDS011;17996;51.056;3.656;2023-07-31T14:04:01;9.23;;;3.90;;
27543;SDS011;17996;51.056;3.656;2023-07-31T14:06:27;6.63;;;4.10;;
27543;SDS011;17996;51.056;3.656;2023-07-31T14:08:53;7.30;;;4.28;;
27543;SDS011;17996;51.056;3.656;2023-07-31T14:11:19;10.43;;;5.45;;
27543;SDS011;17996;51.056;3.656;2023-07-31T14:13:44;9.50;;;4.82;;
27543;SDS011;17996;51.056;3.656;2023-07-31T14:16:10;9.38;;;4.45;;
27543;SDS011;17996;51.056;3.656;2023-07-31T14:18:36;9.27;;;4.47;;
27543;SDS011;17996;51.056;3.656;2023-07-31T14:21:01;7.93;;;4.45;;
27543;SDS011;17996;51.056;3.656;2023-07-31T14:23:27;9.73;;;4.38;;
27543;SDS011;17996;51.056;3.656;2023-07-31T14:25:53;8.80;;;4.53;;
27543;SDS011;17996;51.056;3.656;2023-07-31T14:28:18;8.10;;;3.55;;
27543;SDS011;17996;51.056;3.656;2023-07-31T14:30:44;10.27;;;4.07;;
27543;SDS011;17996;51.056;3.656;2023-07-31T14:33:09;5.95;;;3.40;;
27543;SDS011;17996;51.056;3.656;2023-07-31T14:35:35;7.03;;;3.90;;
27543;SDS011;17996;51.056;3.656;2023-07-31T14:38:01;7.10;;;3.88;;
27543;SDS011;17996;51.056;3.656;2023-07-31T14:40:27;8.70;;;3.70;;
27543;SDS011;17996;51.056;3.656;2023-07-31T14:42:53;8.30;;;3.78;;
27543;SDS011;17996;51.056;3.656;2023-07-31T14:45:19;13.52;;;4.03;;
27543;SDS011;17996;51.056;3.656;2023-07-31T14:47:45;9.07;;;3.50;;
27543;SDS011;17996;51.056;3.656;2023-07-31T14:50:11;9.15;;;4.45;;
27543;SDS011;17996;51.056;3.656;2023-07-31T14:52:36;9.05;;;3.30;;
27543;SDS011;17996;51.056;3.656;2023-07-31T14:55:02;9.38;;;3.67;;
27543;SDS011;17996;51.056;3.656;2023-07-31T14:57:28;6.22;;;2.92;;
27543;SDS011;17996;51.056;3.656;2023-07-31T14:59:54;4.90;;;2.47;;
27543;SDS011;17996;51.056;3.656;2023-07-31T15:02:19;6.95;;;2.42;;
27543;SDS011;17996;51.056;3.656;2023-07-31T15:04:45;5.45;;;2.58;;
27543;SDS011;17996;51.056;3.656;2023-07-31T15:07:11;5.65;;;2.47;;
27543;SDS011;17996;51.056;3.656;2023-07-31T15:09:38;7.55;;;2.13;;